createdAt,value
2019-03-01T00:00:21.024Z,44.60
2019-03-01T00:02:47.638Z,45.30
2019-03-01T00:05:14.570Z,45.20
2019-03-01T00:07:41.333Z,45.30
2019-03-01T00:10:07.935Z,45.20
2019-03-01T00:12:34.606Z,45.10
2019-03-01T00:15:01.380Z,44.80
2019-03-01T00:17:28.584Z,45.40
2019-03-01T00:19:55.533Z,45.50
2019-03-01T00:22:22.149Z,45.60
2019-03-01T00:24:48.753Z,45.50
2019-03-01T00:27:15.897Z,45.20
2019-03-01T00:29:42.529Z,45.30
2019-03-01T00:32:09.464Z,45.30
2019-03-01T00:34:36.617Z,44.80
2019-03-01T00:37:03.433Z,45.40
2019-03-01T00:39:30.959Z,45.20
2019-03-01T00:41:57.666Z,45.00
2019-03-01T00:44:24.374Z,45.00
2019-03-01T00:46:51.362Z,45.60
2019-03-01T00:49:18.285Z,45.40
2019-03-01T00:51:44.955Z,45.70
2019-03-01T00:54:11.538Z,45.50
2019-03-01T00:56:38.483Z,45.50
2019-03-01T00:59:05.471Z,45.10
2019-03-01T01:01:32.119Z,45.80
2019-03-01T01:03:58.962Z,46.40
2019-03-01T01:06:25.917Z,46.40
2019-03-01T01:08:52.682Z,46.10
2019-03-01T01:11:20.739Z,46.90
2019-03-01T01:13:47.576Z,46.90
2019-03-01T01:16:14.426Z,46.40
2019-03-01T01:18:41.704Z,46.50
2019-03-01T01:21:08.367Z,46.60
2019-03-01T01:23:35.285Z,46.10
2019-03-01T01:26:02.673Z,45.90
2019-03-01T01:28:29.364Z,46.80
2019-03-01T01:30:55.988Z,47.20
2019-03-01T01:33:23.707Z,47.30
2019-03-01T01:35:50.739Z,47.80
2019-03-01T01:38:17.458Z,47.50
2019-03-01T01:40:45.891Z,47.60
2019-03-01T01:43:12.540Z,47.50
2019-03-01T01:45:39.442Z,47.50
2019-03-01T01:48:06.478Z,48.30
2019-03-01T01:53:27.281Z,48.40
2019-03-01T01:55:54.204Z,48.70
2019-03-01T01:58:20.869Z,48.50
2019-03-01T02:00:47.665Z,48.10
2019-03-01T02:03:14.293Z,48.20
2019-03-01T02:05:41.082Z,48.80
2019-03-01T02:08:08.058Z,48.60
2019-03-01T02:10:34.759Z,48.80
2019-03-01T02:13:01.549Z,49.70
2019-03-01T02:15:28.462Z,49.80
2019-03-01T02:17:55.337Z,49.80
2019-03-01T02:20:22.278Z,49.70
2019-03-01T02:22:48.921Z,49.60
2019-03-01T02:25:15.645Z,49.50
2019-03-01T02:27:42.547Z,49.20
2019-03-01T02:30:09.512Z,49.50
2019-03-01T02:32:36.605Z,50.40
2019-03-01T02:35:03.298Z,50.00
2019-03-01T02:37:30.085Z,49.50
2019-03-01T02:39:56.851Z,49.60
2019-03-01T02:42:23.620Z,49.70
2019-03-01T02:44:50.621Z,50.50
2019-03-01T02:47:17.417Z,50.70
2019-03-01T02:49:44.540Z,50.50
2019-03-01T02:52:11.529Z,50.40
2019-03-01T02:54:38.325Z,50.70
2019-03-01T02:57:05.237Z,50.60
2019-03-01T02:59:31.860Z,50.90
2019-03-01T03:01:58.504Z,51.40
2019-03-01T03:04:25.330Z,51.20
2019-03-01T03:06:52.513Z,51.30
2019-03-01T03:09:19.452Z,51.00
2019-03-01T03:11:46.308Z,51.50
2019-03-01T03:14:13.536Z,51.50
2019-03-01T03:16:40.326Z,52.20
2019-03-01T03:19:07.200Z,52.50
2019-03-01T03:21:34.674Z,52.80
2019-03-01T03:24:01.688Z,53.20
2019-03-01T03:26:28.612Z,53.20
2019-03-01T03:28:55.551Z,54.40
2019-03-01T03:31:22.386Z,54.70
2019-03-01T03:33:49.442Z,54.10
2019-03-01T03:36:16.489Z,54.50
2019-03-01T03:38:43.351Z,54.50
2019-03-01T03:41:10.279Z,54.00
2019-03-01T03:43:37.605Z,54.50
2019-03-01T03:46:04.240Z,55.40
2019-03-01T03:48:31.858Z,55.90
2019-03-01T03:50:58.566Z,54.70
2019-03-01T03:55:57.663Z,55.20
2019-03-01T03:58:24.657Z,54.00
2019-03-01T04:00:51.282Z,54.20
2019-03-01T04:03:18.193Z,52.50
2019-03-01T04:05:45.174Z,52.40
2019-03-01T04:08:11.758Z,51.70
2019-03-01T04:13:16.911Z,50.80
2019-03-01T04:15:47.683Z,50.50
2019-03-01T04:18:21.810Z,49.80
2019-03-01T04:20:54.757Z,49.60
2019-03-01T04:23:31.216Z,49.80
2019-03-01T04:25:58.505Z,49.60
2019-03-01T04:28:26.120Z,50.00
2019-03-01T04:30:57.606Z,50.20
2019-03-01T04:33:36.084Z,50.20
2019-03-01T04:35:54.513Z,50.00
2019-03-01T04:38:25.271Z,49.60
2019-03-01T04:40:53.723Z,49.40
2019-03-01T04:43:22.338Z,50.20
2019-03-01T04:45:50.598Z,50.20
2019-03-01T04:48:23.377Z,50.00
2019-03-01T04:50:52.982Z,49.70
2019-03-01T04:53:20.648Z,49.30
2019-03-01T04:55:48.645Z,49.10
2019-03-01T04:58:16.104Z,48.90
2019-03-01T05:00:43.723Z,48.90
2019-03-01T05:03:10.474Z,48.90
2019-03-01T05:05:37.551Z,48.70
2019-03-01T05:08:04.213Z,49.30
2019-03-01T05:10:34.214Z,49.10
2019-03-01T05:13:01.085Z,48.50
2019-03-01T05:15:33.233Z,49.00
2019-03-01T05:17:59.958Z,49.00
2019-03-01T05:20:26.888Z,48.90
2019-03-01T05:22:53.489Z,48.70
2019-03-01T05:25:20.251Z,48.80
2019-03-01T05:27:47.231Z,49.00
2019-03-01T05:30:14.156Z,49.50
2019-03-01T05:32:40.768Z,49.20
2019-03-01T05:35:07.749Z,48.90
2019-03-01T05:37:34.587Z,48.40
2019-03-01T05:40:01.362Z,48.60
2019-03-01T05:42:28.590Z,48.90
2019-03-01T05:44:55.542Z,49.60
2019-03-01T05:47:22.303Z,50.00
2019-03-01T05:49:49.512Z,49.80
2019-03-01T05:52:16.127Z,49.60
2019-03-01T05:54:42.770Z,49.80
2019-03-01T05:57:09.427Z,49.80
2019-03-01T05:59:36.028Z,50.30
2019-03-01T06:02:02.827Z,50.10
2019-03-01T06:04:30.006Z,50.00
2019-03-01T06:06:56.628Z,50.80
2019-03-01T06:09:23.266Z,51.30
2019-03-01T06:11:50.182Z,51.00
2019-03-01T06:14:20.976Z,50.80
2019-03-01T06:16:47.907Z,51.10
2019-03-01T06:19:14.628Z,51.10
2019-03-01T06:21:41.431Z,51.70
2019-03-01T06:24:08.096Z,51.20
2019-03-01T06:26:37.552Z,50.70
2019-03-01T06:29:04.519Z,51.10
2019-03-01T06:31:31.741Z,50.90
2019-03-01T06:33:58.958Z,51.80
2019-03-01T06:36:25.685Z,52.30
2019-03-01T06:38:52.593Z,52.50
2019-03-01T06:41:19.978Z,52.90
2019-03-01T06:43:48.127Z,53.20
2019-03-01T06:46:14.855Z,52.30
2019-03-01T06:48:42.072Z,51.30
2019-03-01T06:51:08.694Z,51.50
2019-03-01T06:53:35.650Z,51.60
2019-03-01T06:56:02.689Z,51.80
2019-03-01T06:58:29.881Z,51.60
2019-03-01T07:00:56.766Z,51.40
2019-03-01T07:03:23.674Z,52.40
2019-03-01T07:05:53.250Z,52.20
2019-03-01T07:08:20.316Z,52.20
2019-03-01T07:10:50.650Z,51.50
2019-03-01T07:13:18.147Z,52.20
2019-03-01T07:15:45.931Z,51.70
2019-03-01T07:18:12.937Z,50.60
2019-03-01T07:20:41.435Z,50.50
2019-03-01T07:23:08.118Z,50.00
2019-03-01T07:25:37.286Z,49.20
2019-03-01T07:28:05.346Z,48.80
2019-03-01T07:30:35.666Z,48.40
2019-03-01T07:33:06.077Z,47.70
2019-03-01T07:35:35.217Z,47.10
2019-03-01T07:38:02.184Z,46.70
2019-03-01T07:40:29.153Z,46.00
2019-03-01T07:42:59.361Z,46.20
2019-03-01T07:45:28.255Z,47.50
2019-03-01T07:47:54.966Z,49.00
2019-03-01T07:50:27.947Z,48.10
2019-03-01T07:52:55.529Z,46.90
2019-03-01T07:55:36.309Z,46.20
2019-03-01T07:58:03.870Z,46.10
2019-03-01T08:00:32.798Z,47.30
2019-03-01T08:03:01.213Z,46.90
2019-03-01T08:05:28.564Z,47.10
2019-03-01T08:07:59.806Z,46.40
2019-03-01T08:10:28.693Z,46.30
2019-03-01T08:12:56.403Z,44.80
2019-03-01T08:15:26.305Z,44.00
2019-03-01T08:17:53.481Z,44.10
2019-03-01T08:20:24.837Z,43.60
2019-03-01T08:22:56.680Z,42.80
2019-03-01T08:25:24.701Z,42.10
2019-03-01T08:27:51.969Z,42.30
2019-03-01T08:30:22.630Z,41.30
2019-03-01T08:32:50.456Z,41.90
2019-03-01T08:35:17.407Z,42.50
2019-03-01T08:37:45.304Z,42.10
2019-03-01T08:40:15.654Z,42.10
2019-03-01T08:42:43.634Z,41.00
2019-03-01T08:45:15.647Z,41.60
2019-03-01T08:47:43.028Z,41.30
2019-03-01T08:50:15.791Z,41.30
2019-03-01T08:52:45.547Z,41.80
2019-03-01T08:55:12.208Z,41.70
2019-03-01T08:57:44.528Z,40.00
2019-03-01T09:00:14.958Z,40.40
2019-03-01T09:02:41.438Z,39.50
2019-03-01T09:05:09.830Z,39.30
2019-03-01T09:07:37.002Z,40.40
2019-03-01T09:12:35.906Z,38.90
2019-03-01T09:15:04.498Z,38.40
2019-03-01T09:17:50.130Z,39.00
2019-03-01T09:20:19.106Z,38.40
2019-03-01T09:22:45.964Z,37.20
2019-03-01T09:25:12.818Z,37.30
2019-03-01T09:27:39.724Z,37.30
2019-03-01T09:30:06.952Z,36.60
2019-03-01T09:32:34.824Z,38.00
2019-03-01T09:35:04.317Z,37.70
2019-03-01T09:37:32.495Z,37.80
2019-03-01T09:40:05.550Z,37.80
2019-03-01T09:42:27.638Z,37.60
2019-03-01T09:44:54.555Z,37.50
2019-03-01T09:47:21.206Z,36.70
2019-03-01T09:49:49.231Z,36.30
2019-03-01T09:52:16.040Z,36.60
2019-03-01T09:54:42.926Z,37.10
2019-03-01T09:57:12.459Z,36.90
2019-03-01T09:59:38.443Z,37.40
2019-03-01T10:02:05.087Z,36.60
2019-03-01T10:04:33.212Z,37.40
2019-03-01T10:07:00.093Z,37.10
2019-03-01T10:09:27.293Z,37.70
2019-03-01T10:11:54.084Z,36.60
2019-03-01T10:14:21.361Z,36.70
2019-03-01T10:16:49.599Z,36.70
2019-03-01T10:19:16.639Z,36.10
2019-03-01T10:21:43.242Z,35.60
2019-03-01T10:24:10.160Z,35.70
2019-03-01T10:26:37.478Z,35.90
2019-03-01T10:29:04.385Z,35.20
2019-03-01T10:31:31.256Z,35.80
2019-03-01T10:33:58.232Z,36.10
2019-03-01T10:36:25.621Z,36.40
2019-03-01T10:38:52.638Z,36.70
2019-03-01T10:41:19.878Z,35.80
2019-03-01T10:43:46.554Z,36.30
2019-03-01T10:46:13.357Z,36.20
2019-03-01T10:48:41.492Z,36.40
2019-03-01T10:51:08.468Z,36.90
2019-03-01T10:53:35.447Z,36.30
2019-03-01T10:56:02.862Z,36.80
2019-03-01T10:58:29.682Z,36.00
2019-03-01T11:00:56.652Z,36.20
2019-03-01T11:03:24.152Z,35.70
2019-03-01T11:05:52.974Z,35.10
2019-03-01T11:08:19.946Z,35.90
2019-03-01T11:10:46.875Z,35.70
2019-03-01T11:13:13.470Z,36.10
2019-03-01T11:15:40.080Z,36.40
2019-03-01T11:18:07.175Z,36.40
2019-03-01T11:20:33.864Z,36.90
2019-03-01T11:23:01.210Z,36.20
2019-03-01T11:25:28.043Z,37.10
2019-03-01T11:27:55.042Z,36.30
2019-03-01T11:30:21.902Z,36.60
2019-03-01T11:32:48.695Z,37.00
2019-03-01T11:35:15.334Z,36.90
2019-03-01T11:37:41.950Z,37.30
2019-03-01T11:40:09.477Z,36.60
2019-03-01T11:42:36.092Z,36.90
2019-03-01T11:45:02.852Z,36.90
2019-03-01T11:47:29.818Z,36.60
2019-03-01T11:49:56.521Z,37.00
2019-03-01T11:52:23.185Z,37.00
2019-03-01T11:54:49.890Z,37.30
2019-03-01T11:57:16.624Z,36.50
2019-03-01T11:59:43.289Z,35.80
2019-03-01T12:02:10.258Z,36.00
2019-03-01T12:04:36.991Z,36.10
2019-03-01T12:07:03.651Z,36.60
2019-03-01T12:09:30.589Z,37.00
2019-03-01T12:11:57.237Z,36.70
2019-03-01T12:14:23.901Z,37.00
2019-03-01T12:16:50.544Z,36.60
2019-03-01T12:19:17.245Z,37.00
2019-03-01T12:21:43.879Z,36.70
2019-03-01T12:24:10.560Z,36.90
2019-03-01T12:26:37.181Z,36.50
2019-03-01T12:29:03.770Z,36.40
2019-03-01T12:31:30.469Z,36.20
2019-03-01T12:33:57.173Z,36.90
2019-03-01T12:36:23.802Z,36.10
2019-03-01T12:38:50.966Z,36.60
2019-03-01T12:41:17.682Z,36.30
2019-03-01T12:43:44.348Z,36.10
2019-03-01T12:46:11.000Z,36.20
2019-03-01T12:48:37.664Z,36.00
2019-03-01T12:51:04.373Z,36.10
2019-03-01T12:53:31.090Z,36.20
2019-03-01T12:55:57.798Z,35.70
2019-03-01T12:58:24.375Z,35.90
2019-03-01T13:00:51.029Z,36.90
2019-03-01T13:03:17.616Z,37.50
2019-03-01T13:05:44.219Z,37.10
2019-03-01T13:08:12.573Z,37.20
2019-03-01T13:10:40.343Z,37.30
2019-03-01T13:13:08.594Z,36.90
2019-03-01T13:15:35.589Z,36.70
2019-03-01T13:18:03.473Z,36.60
2019-03-01T13:20:30.378Z,36.60
2019-03-01T13:22:57.001Z,36.00
2019-03-01T13:25:25.917Z,37.00
2019-03-01T13:27:52.591Z,36.60
2019-03-01T13:30:20.600Z,36.30
2019-03-01T13:32:47.438Z,36.90
2019-03-01T13:35:15.604Z,37.80
2019-03-01T13:37:42.503Z,38.80
2019-03-01T13:40:09.157Z,39.80
2019-03-01T13:42:35.868Z,40.10
2019-03-01T13:45:02.517Z,40.30
2019-03-01T13:47:29.325Z,39.40
2019-03-01T13:49:56.326Z,37.50
2019-03-01T13:52:26.735Z,37.90
2019-03-01T13:54:52.352Z,39.10
2019-03-01T13:57:19.391Z,38.40
2019-03-01T13:59:46.054Z,38.90
2019-03-01T14:02:12.840Z,38.00
2019-03-01T14:04:40.398Z,38.40
2019-03-01T14:07:08.294Z,37.50
2019-03-01T14:09:35.303Z,38.00
2019-03-01T14:12:02.072Z,37.70
2019-03-01T14:14:29.147Z,38.60
2019-03-01T14:16:56.278Z,38.50
2019-03-01T14:19:23.217Z,38.60
2019-03-01T14:21:51.188Z,38.20
2019-03-01T14:24:17.921Z,38.00
2019-03-01T14:26:44.525Z,38.40
2019-03-01T14:29:12.874Z,38.60
2019-03-01T14:31:42.831Z,38.90
2019-03-01T14:34:11.597Z,39.20
2019-03-01T14:36:39.860Z,39.20
2019-03-01T14:39:06.751Z,39.20
2019-03-01T14:41:35.024Z,38.70
2019-03-01T14:44:01.978Z,39.10
2019-03-01T14:46:35.675Z,39.10
2019-03-01T14:49:02.024Z,38.80
2019-03-01T14:51:28.947Z,38.90
2019-03-01T14:53:55.928Z,38.60
2019-03-01T14:56:24.425Z,38.30
2019-03-01T14:58:52.268Z,38.50
2019-03-01T15:01:18.996Z,38.50
2019-03-01T15:03:45.973Z,38.60
2019-03-01T15:06:15.558Z,38.40
2019-03-01T15:08:44.234Z,39.10
2019-03-01T15:11:10.912Z,38.70
2019-03-01T15:13:38.150Z,39.30
2019-03-01T15:16:06.055Z,38.80
2019-03-01T15:18:33.426Z,38.70
2019-03-01T15:21:02.622Z,39.00
2019-03-01T15:23:28.638Z,39.10
2019-03-01T15:25:55.601Z,38.90
2019-03-01T15:28:22.476Z,39.50
2019-03-01T15:30:49.083Z,38.90
2019-03-01T15:33:15.895Z,39.10
2019-03-01T15:35:42.575Z,39.00
2019-03-01T15:38:10.901Z,38.70
2019-03-01T15:40:38.077Z,38.30
2019-03-01T15:43:04.956Z,38.50
2019-03-01T15:45:31.551Z,38.80
2019-03-01T15:47:58.715Z,38.70
2019-03-01T15:50:27.366Z,39.10
2019-03-01T15:52:54.794Z,39.20
2019-03-01T15:55:30.302Z,39.10
2019-03-01T15:57:57.447Z,38.80
2019-03-01T16:00:25.582Z,39.30
2019-03-01T16:02:55.623Z,39.90
2019-03-01T16:05:22.190Z,40.00
2019-03-01T16:07:49.034Z,40.30
2019-03-01T16:10:16.005Z,40.80
2019-03-01T16:12:42.641Z,41.20
2019-03-01T16:15:09.588Z,41.50
2019-03-01T16:17:36.347Z,41.50
2019-03-01T16:20:03.240Z,41.90
2019-03-01T16:22:30.120Z,41.80
2019-03-01T16:24:56.762Z,41.60
2019-03-01T16:27:25.261Z,41.60
2019-03-01T16:29:52.468Z,42.00
2019-03-01T16:32:19.511Z,41.90
2019-03-01T16:34:46.506Z,41.70
2019-03-01T16:37:13.579Z,41.80
2019-03-01T16:39:40.684Z,41.90
2019-03-01T16:42:09.161Z,41.70
2019-03-01T16:44:36.144Z,42.80
2019-03-01T16:47:03.570Z,42.70
2019-03-01T16:49:32.270Z,42.60
2019-03-01T16:51:59.012Z,42.50
2019-03-01T16:54:26.403Z,42.30
2019-03-01T16:56:53.294Z,42.40
2019-03-01T16:59:21.174Z,42.40
2019-03-01T17:01:48.303Z,42.20
2019-03-01T17:04:15.474Z,41.90
2019-03-01T17:06:45.396Z,42.20
2019-03-01T17:09:15.302Z,42.70
2019-03-01T17:11:41.503Z,42.90
2019-03-01T17:14:08.581Z,43.00
2019-03-01T17:16:35.602Z,43.30
2019-03-01T17:19:02.680Z,43.30
2019-03-01T17:21:33.035Z,43.40
2019-03-01T17:24:01.999Z,43.60
2019-03-01T17:26:32.768Z,44.00
2019-03-01T17:29:05.437Z,44.50
2019-03-01T17:31:34.108Z,44.80
2019-03-01T17:34:04.500Z,44.80
2019-03-01T17:36:35.714Z,45.10
2019-03-01T17:39:05.117Z,44.90
2019-03-01T17:41:36.171Z,44.80
2019-03-01T17:44:14.056Z,45.30
2019-03-01T17:46:42.497Z,46.20
2019-03-01T17:49:09.761Z,47.00
2019-03-01T17:51:39.462Z,46.70
2019-03-01T17:54:10.179Z,46.10
2019-03-01T17:56:38.720Z,46.00
2019-03-01T17:59:08.301Z,46.50
2019-03-01T18:01:40.327Z,46.30
2019-03-01T18:04:15.841Z,46.20
2019-03-01T18:06:42.215Z,46.20
2019-03-01T18:09:13.198Z,46.60
2019-03-01T18:11:56.138Z,47.50
2019-03-01T18:14:29.891Z,48.00
2019-03-01T18:17:00.421Z,48.20
2019-03-01T18:19:27.705Z,48.00
2019-03-01T18:21:57.283Z,48.30
2019-03-01T18:24:29.726Z,48.10
2019-03-01T18:26:58.592Z,49.30
2019-03-01T18:29:25.912Z,50.20
2019-03-01T18:31:55.599Z,50.70
2019-03-01T18:34:29.788Z,49.90
2019-03-01T18:36:55.567Z,49.30
2019-03-01T18:39:23.436Z,50.00
2019-03-01T18:42:02.418Z,49.70
2019-03-01T18:44:47.887Z,49.70
2019-03-01T18:47:20.354Z,49.50
2019-03-01T18:49:51.372Z,49.50
2019-03-01T18:55:07.669Z,49.50
2019-03-01T18:57:39.478Z,49.70
2019-03-01T19:00:07.620Z,49.90
2019-03-01T19:02:37.276Z,50.90
2019-03-01T19:05:04.622Z,51.00
2019-03-01T19:07:34.123Z,51.10
2019-03-01T19:10:01.124Z,51.10
2019-03-01T19:12:28.363Z,51.60
2019-03-01T19:14:55.252Z,51.80
2019-03-01T19:17:22.228Z,54.30
2019-03-01T19:19:49.774Z,54.80
2019-03-01T19:22:16.542Z,55.70
2019-03-01T19:24:46.653Z,54.50
2019-03-01T19:27:15.510Z,54.40
2019-03-01T19:29:40.610Z,53.90
2019-03-01T19:32:07.901Z,55.80
2019-03-01T19:34:59.124Z,55.90
2019-03-01T19:37:26.213Z,55.40
2019-03-01T19:39:53.202Z,54.80
2019-03-01T19:42:19.843Z,55.00
2019-03-01T19:44:47.388Z,54.70
2019-03-01T19:47:15.532Z,55.70
2019-03-01T19:49:45.166Z,56.00
2019-03-01T19:52:12.198Z,56.10
2019-03-01T19:54:39.797Z,56.70
2019-03-01T19:57:06.553Z,56.70
2019-03-01T19:59:33.576Z,57.00
2019-03-01T20:02:00.331Z,56.40
2019-03-01T20:04:28.235Z,57.00
2019-03-01T20:06:55.135Z,59.00
2019-03-01T20:09:22.312Z,59.80
2019-03-01T20:11:49.280Z,59.40
2019-03-01T20:14:16.926Z,58.50
2019-03-01T20:16:44.226Z,57.90
2019-03-01T20:19:12.919Z,57.90
2019-03-01T20:21:41.317Z,58.30
2019-03-01T20:24:10.698Z,59.70
2019-03-01T20:26:38.356Z,62.50
2019-03-01T20:29:07.313Z,63.20
2019-03-01T20:31:36.770Z,65.90
2019-03-01T20:34:03.031Z,64.40
2019-03-01T20:36:30.005Z,64.10
2019-03-01T20:38:56.730Z,63.80
2019-03-01T20:41:23.626Z,62.40
2019-03-01T20:43:50.630Z,65.10
2019-03-01T20:46:18.924Z,63.80
2019-03-01T20:48:46.237Z,62.50
2019-03-01T20:51:15.370Z,63.90
2019-03-01T20:53:45.637Z,65.00
2019-03-01T20:56:13.903Z,64.80
2019-03-01T20:58:41.513Z,65.30
2019-03-01T21:01:08.333Z,63.90
2019-03-01T21:03:35.065Z,63.80
2019-03-01T21:06:04.648Z,66.90
2019-03-01T21:08:30.963Z,69.20
2019-03-01T21:10:57.687Z,67.80
2019-03-01T21:13:24.939Z,66.10
2019-03-01T21:15:53.192Z,65.80
2019-03-01T21:18:20.253Z,67.70
2019-03-01T21:20:47.163Z,66.30
2019-03-01T21:23:15.105Z,66.70
2019-03-01T21:25:42.590Z,67.20
2019-03-01T21:30:42.511Z,66.10
2019-03-01T21:33:09.138Z,66.90
2019-03-01T21:35:36.586Z,67.80
2019-03-01T21:38:04.259Z,66.30
2019-03-01T21:40:31.460Z,69.00
2019-03-01T21:43:00.167Z,66.40
2019-03-01T21:45:27.306Z,67.60
2019-03-01T21:47:53.935Z,68.00
2019-03-01T21:50:20.751Z,71.70
2019-03-01T21:52:47.993Z,71.20
2019-03-01T21:55:14.672Z,71.40
2019-03-01T21:57:41.605Z,73.30
2019-03-01T22:00:08.348Z,73.90
2019-03-01T22:02:35.831Z,73.50
2019-03-01T22:05:03.811Z,73.00
2019-03-01T22:07:33.588Z,72.00
2019-03-01T22:12:44.348Z,74.10
2019-03-01T22:15:12.396Z,74.40
2019-03-01T22:17:39.456Z,73.10
2019-03-01T22:20:08.994Z,72.50
2019-03-01T22:22:37.524Z,72.60
2019-03-01T22:25:04.001Z,72.30
2019-03-01T22:27:31.972Z,72.20
2019-03-01T22:29:58.709Z,72.70
2019-03-01T22:32:25.809Z,74.60
2019-03-01T22:34:53.991Z,76.80
2019-03-01T22:37:20.640Z,75.80
2019-03-01T22:39:48.334Z,77.10
2019-03-01T22:42:15.771Z,77.80
2019-03-01T22:44:43.793Z,77.20
2019-03-01T22:47:10.481Z,75.70
2019-03-01T22:49:37.335Z,74.20
2019-03-01T22:52:04.158Z,75.20
2019-03-01T22:54:30.941Z,75.40
2019-03-01T22:56:58.447Z,74.10
2019-03-01T22:59:25.109Z,74.40
2019-03-01T23:01:52.059Z,75.80
2019-03-01T23:04:18.995Z,78.80
2019-03-01T23:06:47.521Z,78.70
2019-03-01T23:11:59.065Z,79.00
2019-03-01T23:14:27.307Z,76.80
2019-03-01T23:16:55.608Z,75.80
2019-03-01T23:19:22.428Z,77.00
2019-03-01T23:21:49.309Z,83.10
2019-03-01T23:24:16.066Z,80.10
2019-03-01T23:26:43.966Z,80.10
2019-03-01T23:29:10.950Z,80.00
2019-03-01T23:31:38.958Z,81.60
2019-03-01T23:36:40.413Z,82.80
2019-03-01T23:39:08.459Z,80.00
2019-03-01T23:41:35.226Z,82.30
2019-03-01T23:44:02.870Z,87.20
2019-03-01T23:49:27.293Z,82.30
2019-03-01T23:51:54.066Z,82.40
2019-03-01T23:54:20.787Z,79.80
2019-03-01T23:56:47.642Z,78.80
2019-03-01T23:59:14.743Z,79.70
